Time;durP1;ratioP1;P1;durP2;ratioP2;P2;SDS_P1;SDS_P2;PMS_P1;PMS_P2;Temp;Humidity;BMP_temperature;BMP_pressure;BME280_temperature;BME280_humidity;BME280_pressure;Samples;Min_cycle;Max_cycle;Signal;HPM_P1;HPM_P2
2021/12/23 00:00:06;;;;;;;368.65;88.25;;;;;;;-2.71;78.28;100825.47;341189;28;1537;-70
2021/12/23 00:00:16;;;;;;;369.48;89.32;;;;;;;-2.70;78.03;100826.34;342704;28;1793;-70
2021/12/23 00:00:26;;;;;;;370.00;89.13;;;;;;;-2.70;78.22;100834.00;338725;29;945;-70
2021/12/23 00:00:37;;;;;;;369.65;89.45;;;;;;;-2.71;78.08;100832.28;337068;29;1320;-70
2021/12/23 00:00:47;;;;;;;367.97;87.17;;;;;;;-2.72;78.70;100828.84;335968;29;1462;-70
2021/12/23 00:00:58;;;;;;;367.92;86.72;;;;;;;-2.73;78.27;100833.91;337525;29;1606;-70
2021/12/23 00:01:08;;;;;;;364.90;85.10;;;;;;;-2.73;78.45;100831.34;339442;28;1588;-70
2021/12/23 00:01:18;;;;;;;364.27;85.70;;;;;;;-2.73;78.71;100828.78;341344;28;1471;-70
2021/12/23 00:01:31;;;;;;;364.50;85.97;;;;;;;-2.73;78.91;100833.91;339841;28;1370;-70
2021/12/23 00:01:42;;;;;;;368.63;88.65;;;;;;;-2.72;78.77;100835.66;336206;29;1373;-70
2021/12/23 00:01:53;;;;;;;367.73;89.43;;;;;;;-2.72;78.32;100836.53;337272;29;1792;-69
2021/12/23 00:02:04;;;;;;;371.88;91.65;;;;;;;-2.71;78.67;100829.72;337276;29;1528;-69
2021/12/23 00:02:14;;;;;;;368.95;89.65;;;;;;;-2.71;78.26;100827.16;339841;29;1196;-69
2021/12/23 00:02:24;;;;;;;369.53;89.63;;;;;;;-2.70;78.28;100834.00;341312;28;2109;-69
2021/12/23 00:02:35;;;;;;;367.52;88.93;;;;;;;-2.71;78.01;100829.72;341119;28;920;-69
2021/12/23 00:02:46;;;;;;;368.67;90.05;;;;;;;-2.73;78.15;100833.91;342236;28;1281;-70
2021/12/23 00:02:56;;;;;;;369.03;89.40;;;;;;;-2.71;78.16;100827.16;340075;29;948;-70
2021/12/23 00:03:06;;;;;;;365.67;88.67;;;;;;;-2.70;78.65;100837.44;336429;29;1550;-70
2021/12/23 00:03:17;;;;;;;364.70;88.13;;;;;;;-2.69;78.12;100830.63;340697;28;1335;-70
2021/12/23 00:03:27;;;;;;;364.83;88.77;;;;;;;-2.69;77.99;100828.06;340195;29;1342;-70
2021/12/23 00:03:38;;;;;;;368.48;90.40;;;;;;;-2.69;78.30;100830.63;340835;28;1329;-70
2021/12/23 00:03:48;;;;;;;371.20;90.83;;;;;;;-2.68;77.92;100832.38;339654;29;1390;-69
2021/12/23 00:03:58;;;;;;;370.08;89.25;;;;;;;-2.69;78.32;100833.19;337720;29;981;-70
2021/12/23 00:04:10;;;;;;;365.47;87.77;;;;;;;-2.69;78.18;100830.63;337301;29;1482;-70
2021/12/23 00:04:20;;;;;;;364.52;87.38;;;;;;;-2.69;77.89;100831.50;338549;29;2042;-70
2021/12/23 00:04:31;;;;;;;369.50;88.57;;;;;;;-2.68;78.27;100834.94;338626;29;1575;-69
2021/12/23 00:04:41;;;;;;;370.97;89.53;;;;;;;-2.69;77.64;100825.50;341290;28;1847;-69
2021/12/23 00:04:52;;;;;;;371.20;89.72;;;;;;;-2.69;78.30;100841.75;339966;29;1583;-69
2021/12/23 00:05:02;;;;;;;369.17;88.80;;;;;;;-2.69;78.29;100830.63;338369;28;1291;-70
2021/12/23 00:05:12;;;;;;;371.65;87.38;;;;;;;-2.69;77.79;100826.38;336234;29;803;-69
2021/12/23 00:05:23;;;;;;;369.17;87.33;;;;;;;-2.69;78.02;100830.63;339909;29;1953;-69
2021/12/23 00:05:33;;;;;;;368.42;87.75;;;;;;;-2.70;78.36;100834.88;339771;29;1996;-69
2021/12/23 00:05:44;;;;;;;368.57;88.90;;;;;;;-2.69;77.77;100830.63;338673;29;1347;-69
2021/12/23 00:05:54;;;;;;;373.10;90.10;;;;;;;-2.69;78.28;100836.63;339210;29;1424;-70
2021/12/23 00:06:04;;;;;;;373.20;90.63;;;;;;;-2.69;78.43;100830.63;335164;29;1452;-70
2021/12/23 00:06:15;;;;;;;372.67;89.93;;;;;;;-2.67;78.09;100831.56;336927;29;1743;-69
2021/12/23 00:06:25;;;;;;;370.15;88.38;;;;;;;-2.67;78.01;100826.44;336673;29;910;-69
2021/12/23 00:06:36;;;;;;;370.57;88.37;;;;;;;-2.67;78.21;100829.00;337023;29;1400;-69
2021/12/23 00:06:46;;;;;;;367.98;88.75;;;;;;;-2.67;77.87;100829.00;339915;29;1666;-69
2021/12/23 00:06:57;;;;;;;366.73;88.57;;;;;;;-2.67;78.05;100825.56;342842;28;971;-70
2021/12/23 00:07:07;;;;;;;363.30;87.53;;;;;;;-2.68;78.09;100827.25;341208;28;1950;-70
2021/12/23 00:07:17;;;;;;;365.15;87.68;;;;;;;-2.68;78.25;100832.38;342264;28;1495;-70
2021/12/23 00:07:28;;;;;;;365.87;88.17;;;;;;;-2.69;78.19;100834.06;342783;28;1214;-70
2021/12/23 00:07:38;;;;;;;369.05;89.38;;;;;;;-2.70;77.74;100826.34;342515;28;1261;-70
2021/12/23 00:07:49;;;;;;;368.23;89.53;;;;;;;-2.70;77.97;100828.88;339968;28;1404;-70
2021/12/23 00:07:59;;;;;;;370.23;89.95;;;;;;;-2.70;77.76;100823.78;340162;28;829;-70
2021/12/23 00:08:10;;;;;;;369.97;89.23;;;;;;;-2.69;78.19;100830.63;340021;28;1559;-70
2021/12/23 00:08:20;;;;;;;369.08;88.53;;;;;;;-2.70;78.07;100828.88;339953;29;1028;-70
2021/12/23 00:08:31;;;;;;;366.35;88.25;;;;;;;-2.70;77.98;100824.63;339744;28;1571;-70
2021/12/23 00:08:41;;;;;;;368.00;89.43;;;;;;;-2.70;77.93;100827.19;340011;29;1331;-70
2021/12/23 00:08:52;;;;;;;373.30;90.18;;;;;;;-2.67;77.62;100829.00;341076;28;1431;-70
2021/12/23 00:09:04;;;;;;;373.17;89.63;;;;;;;-2.67;77.89;100829.00;341254;28;1436;-71
2021/12/23 00:09:14;;;;;;;372.17;88.47;;;;;;;-2.67;78.10;100823.88;338665;29;1427;-70
2021/12/23 00:09:36;;;;;;;371.77;88.87;;;;;;;-2.67;77.53;100834.13;339996;29;859;-70
2021/12/23 00:10:07;;;;;;;369.85;89.00;;;;;;;-2.70;77.32;100837.44;341298;28;2005;-69
2021/12/23 00:10:17;;;;;;;369.13;89.35;;;;;;;-2.69;77.43;100835.75;339957;29;999;-70
2021/12/23 00:10:28;;;;;;;368.10;89.07;;;;;;;-2.71;77.88;100830.59;336199;29;1311;-70
2021/12/23 00:10:40;;;;;;;366.97;89.27;;;;;;;-2.72;77.57;100833.09;337309;29;818;-70
2021/12/23 00:10:50;;;;;;;367.48;88.38;;;;;;;-2.71;77.83;100828.03;336610;29;1744;-70
2021/12/23 00:11:00;;;;;;;365.27;87.00;;;;;;;-2.71;77.99;100827.16;335731;29;1743;-70
2021/12/23 00:11:11;;;;;;;366.10;87.00;;;;;;;-2.71;77.51;100827.16;337886;28;1412;-70
2021/12/23 00:11:21;;;;;;;365.33;89.77;;;;;;;-2.72;77.60;100826.28;339228;28;1330;-70
2021/12/23 00:11:31;;;;;;;367.70;91.35;;;;;;;-2.70;77.62;100828.88;339521;29;1585;-70
2021/12/23 00:11:42;;;;;;;368.90;91.43;;;;;;;-2.71;77.50;100832.28;335918;29;940;-70
2021/12/23 00:11:52;;;;;;;371.27;89.63;;;;;;;-2.70;77.62;100834.00;338203;29;2163;-70
2021/12/23 00:12:03;;;;;;;371.30;87.50;;;;;;;-2.68;77.84;100832.38;339705;29;1405;-70
2021/12/23 00:12:14;;;;;;;369.23;86.80;;;;;;;-2.69;77.43;100826.38;338705;29;1332;-70
2021/12/23 00:12:24;;;;;;;368.55;88.60;;;;;;;-2.65;77.52;100832.47;341375;28;1449;-70
2021/12/23 00:12:39;;;;;;;369.10;89.93;;;;;;;-2.65;77.66;100831.59;339736;29;2002;-69
2021/12/23 00:12:49;;;;;;;368.17;87.45;;;;;;;-2.64;77.53;100830.78;338419;29;1497;-70
2021/12/23 00:13:00;;;;;;;367.20;87.50;;;;;;;-2.63;77.44;100827.41;338824;29;857;-70
2021/12/23 00:13:10;;;;;;;366.33;87.37;;;;;;;-2.64;77.33;100823.97;339650;28;1209;-69
2021/12/23 00:13:21;;;;;;;365.85;88.18;;;;;;;-2.65;77.18;100827.34;339333;29;1744;-69
2021/12/23 00:13:34;;;;;;;366.10;87.28;;;;;;;-2.66;77.78;100828.16;341110;28;2019;-69
2021/12/23 00:13:51;;;;;;;367.75;86.75;;;;;;;-2.64;77.73;100830.78;339705;28;1343;-69
2021/12/23 00:14:11;;;;;;;369.90;88.70;;;;;;;-2.67;77.26;100826.44;337310;29;2379;-69
2021/12/23 00:14:21;;;;;;;369.35;89.30;;;;;;;-2.67;77.84;100829.00;339856;28;1506;-69
2021/12/23 00:14:34;;;;;;;369.73;88.40;;;;;;;-2.67;77.66;100823.88;340982;28;1355;-69
2021/12/23 00:14:45;;;;;;;365.90;87.90;;;;;;;-2.67;77.50;100834.13;339650;29;1912;-69
2021/12/23 00:14:56;;;;;;;364.85;88.68;;;;;;;-2.69;77.92;100831.50;336078;29;1495;-69
2021/12/23 00:15:22;;;;;;;365.23;88.17;;;;;;;-2.69;77.88;100828.06;338638;29;1273;-69
2021/12/23 00:15:39;;;;;;;363.88;88.72;;;;;;;-2.68;77.55;100827.25;340067;28;1732;-70
2021/12/23 00:16:17;;;;;;;369.58;87.57;;;;;;;-2.67;77.06;100834.13;337415;29;1322;-69
2021/12/23 00:16:42;;;;;;;362.63;86.47;;;;;;;-2.69;77.49;100825.50;337139;29;1296;-69
2021/12/23 00:17:17;;;;;;;365.48;85.72;;;;;;;-2.68;77.48;100834.94;338664;29;1308;-69
2021/12/23 00:17:54;;;;;;;364.83;86.72;;;;;;;-2.71;77.61;100828.03;338522;29;1445;-69
2021/12/23 00:18:19;;;;;;;367.35;88.03;;;;;;;-2.69;77.48;100830.63;339693;29;1848;-69
2021/12/23 00:18:57;;;;;;;366.83;87.47;;;;;;;-2.71;77.49;100827.16;341127;29;1032;-69
2021/12/23 00:19:20;;;;;;;363.55;86.70;;;;;;;-2.69;77.62;100825.50;340960;29;1842;-69
2021/12/23 00:19:57;;;;;;;362.52;86.88;;;;;;;-2.69;77.30;100828.06;338502;29;994;-69
2021/12/23 00:23:26;;;;;;;366.45;85.95;;;;;;;-2.62;76.74;100832.56;339069;29;1124;-70
2021/12/23 00:23:36;;;;;;;363.50;84.95;;;;;;;-2.63;76.48;100835.97;336929;29;1919;-70
2021/12/23 00:23:47;;;;;;;359.63;84.70;;;;;;;-2.64;76.80;100829.09;338447;29;1704;-70
2021/12/23 00:23:58;;;;;;;359.58;84.78;;;;;;;-2.66;76.91;100835.84;339899;29;799;-70
2021/12/23 00:24:09;;;;;;;363.65;87.20;;;;;;;-2.65;76.44;100834.16;339680;29;2088;-70
2021/12/23 00:24:19;;;;;;;362.95;88.50;;;;;;;-2.66;76.88;100832.41;339858;29;2094;-70
2021/12/23 00:24:29;;;;;;;362.07;89.43;;;;;;;-2.66;76.76;100830.72;339831;29;945;-70
2021/12/23 00:24:40;;;;;;;364.50;89.10;;;;;;;-2.65;76.50;100827.34;339703;29;889;-70
2021/12/23 00:24:50;;;;;;;366.03;88.40;;;;;;;-2.64;76.49;100826.53;340901;29;1519;-70
2021/12/23 00:25:01;;;;;;;367.50;87.87;;;;;;;-2.64;76.68;100826.53;343799;28;1239;-70
2021/12/23 00:25:11;;;;;;;368.47;87.03;;;;;;;-2.66;76.57;100827.31;341575;28;2254;-70
2021/12/23 00:25:22;;;;;;;365.60;86.22;;;;;;;-2.65;76.27;100829.03;338935;29;1495;-70
2021/12/23 00:25:32;;;;;;;365.80;86.77;;;;;;;-2.67;76.42;100834.13;338456;29;1527;-70
2021/12/23 00:25:42;;;;;;;366.40;90.00;;;;;;;-2.67;76.78;100831.56;339904;29;911;-70
2021/12/23 00:25:55;;;;;;;368.80;89.27;;;;;;;-2.68;76.36;100827.25;340882;29;2058;-70
2021/12/23 00:26:06;;;;;;;369.17;87.78;;;;;;;-2.69;76.25;100825.50;338470;29;1878;-70
2021/12/23 00:26:16;;;;;;;370.02;87.60;;;;;;;-2.70;76.06;100823.78;342397;28;1216;-70
2021/12/23 00:26:27;;;;;;;366.70;88.20;;;;;;;-2.70;76.73;100828.88;340795;28;1391;-70
2021/12/23 00:26:37;;;;;;;364.05;86.72;;;;;;;-2.69;76.48;100833.19;341734;28;2120;-71
2021/12/23 00:26:48;;;;;;;362.13;84.43;;;;;;;-2.73;76.38;100833.91;338430;29;1047;-71
2021/12/23 00:26:58;;;;;;;362.67;84.83;;;;;;;-2.74;76.77;100827.06;339903;29;818;-71
2021/12/23 00:27:09;;;;;;;365.20;87.50;;;;;;;-2.71;76.50;100829.72;341098;28;1782;-71
2021/12/23 00:27:19;;;;;;;365.50;87.87;;;;;;;-2.69;77.02;100830.63;340885;29;1993;-71
2021/12/23 00:27:29;;;;;;;364.38;86.88;;;;;;;-2.69;76.72;100833.19;339723;29;1353;-71
2021/12/23 00:27:40;;;;;;;365.23;86.70;;;;;;;-2.68;77.00;100832.38;339687;29;1352;-70
2021/12/23 00:27:50;;;;;;;368.00;87.03;;;;;;;-2.68;76.78;100827.25;339781;29;1337;-70
2021/12/23 00:28:01;;;;;;;365.20;87.07;;;;;;;-2.70;76.84;100828.88;341269;29;941;-70
2021/12/23 00:28:11;;;;;;;364.10;86.13;;;;;;;-2.71;76.53;100828.03;338259;29;2207;-70
2021/12/23 00:28:22;;;;;;;361.07;86.20;;;;;;;-2.72;76.60;100827.97;341530;28;1791;-70
2021/12/23 00:28:32;;;;;;;364.48;87.20;;;;;;;-2.71;76.51;100834.84;341122;29;2214;-70
2021/12/23 00:28:43;;;;;;;365.13;87.30;;;;;;;-2.71;76.91;100824.59;341176;29;923;-70
2021/12/23 00:28:53;;;;;;;366.67;86.50;;;;;;;-2.72;76.62;100831.41;340965;29;1816;-70
2021/12/23 00:29:03;;;;;;;368.10;86.53;;;;;;;-2.75;76.63;100826.19;338389;29;1662;-70
2021/12/23 00:29:14;;;;;;;368.50;88.23;;;;;;;-2.77;76.42;100827.81;337203;29;1315;-70
2021/12/23 00:29:24;;;;;;;365.13;88.63;;;;;;;-2.76;76.90;100831.25;339693;29;1177;-70
2021/12/23 00:29:35;;;;;;;366.02;89.05;;;;;;;-2.77;76.18;100837.19;341378;28;2049;-70
2021/12/23 00:29:45;;;;;;;366.93;88.07;;;;;;;-2.78;76.81;100826.09;339668;29;1563;-70
2021/12/23 00:29:55;;;;;;;369.42;88.78;;;;;;;-2.79;76.53;100832.03;340888;29;1593;-70
2021/12/23 00:30:07;;;;;;;363.73;87.97;;;;;;;-2.79;76.23;100826.03;341086;29;1067;-70
2021/12/23 00:30:18;;;;;;;360.60;87.35;;;;;;;-2.79;76.36;100824.34;338346;28;1277;-70
2021/12/23 00:30:29;;;;;;;357.55;85.85;;;;;;;-2.80;76.10;100830.28;342363;28;1400;-70
2021/12/23 00:30:39;;;;;;;361.05;86.43;;;;;;;-2.80;76.27;100832.84;342291;28;1727;-70
2021/12/23 00:30:49;;;;;;;365.97;88.53;;;;;;;-2.79;76.57;100828.59;343815;28;881;-70
2021/12/23 00:31:00;;;;;;;370.63;90.32;;;;;;;-2.80;76.68;100817.47;342591;28;1377;-70
2021/12/23 00:31:10;;;;;;;370.65;89.22;;;;;;;-2.81;76.58;100820.00;338384;29;2348;-70
2021/12/23 00:31:21;;;;;;;369.77;89.50;;;;;;;-2.79;76.64;100823.47;342172;28;2163;-70
2021/12/23 00:31:32;;;;;;;368.60;88.95;;;;;;;-2.78;76.48;100820.97;339910;29;842;-70
2021/12/23 00:31:42;;;;;;;365.37;88.10;;;;;;;-2.78;76.83;100822.66;341074;29;1307;-70
2021/12/23 00:31:52;;;;;;;363.42;86.30;;;;;;;-2.79;76.37;100819.22;338431;29;1807;-70
2021/12/23 00:32:05;;;;;;;361.87;86.60;;;;;;;-2.79;76.64;100823.47;337460;29;890;-70
2021/12/23 00:32:16;;;;;;;365.98;87.78;;;;;;;-2.81;76.13;100827.69;339812;29;1075;-70
2021/12/23 00:32:26;;;;;;;366.77;87.47;;;;;;;-2.83;76.54;100829.31;341015;28;1726;-70
2021/12/23 00:32:37;;;;;;;367.33;87.23;;;;;;;-2.84;76.84;100825.00;341037;29;2195;-70
2021/12/23 00:32:47;;;;;;;361.88;86.43;;;;;;;-2.86;76.46;100824.09;345090;28;1139;-70
2021/12/23 00:32:57;;;;;;;365.10;87.10;;;;;;;-2.87;76.72;100825.78;342300;28;1244;-70
2021/12/23 00:33:08;;;;;;;365.17;87.73;;;;;;;-2.86;76.39;100821.53;341093;28;2111;-70
2021/12/23 00:33:21;;;;;;;370.75;89.35;;;;;;;-2.87;77.05;100823.22;338505;29;2033;-70
2021/12/23 00:33:33;;;;;;;369.85;89.53;;;;;;;-2.86;77.04;100821.53;339874;29;921;-70
2021/12/23 00:33:44;;;;;;;366.88;89.22;;;;;;;-2.86;76.97;100822.41;341099;29;1481;-70
2021/12/23 00:33:54;;;;;;;366.15;87.85;;;;;;;-2.83;76.50;100826.75;340930;29;881;-71
2021/12/23 00:34:05;;;;;;;364.97;85.90;;;;;;;-2.84;76.33;100827.56;340688;29;1126;-71
2021/12/23 00:34:15;;;;;;;363.58;86.38;;;;;;;-2.82;77.01;100828.50;338434;29;1330;-71
2021/12/23 00:34:26;;;;;;;365.50;88.17;;;;;;;-2.82;76.30;100829.38;339695;29;1465;-71
2021/12/23 00:34:37;;;;;;;366.33;89.28;;;;;;;-2.83;76.84;100830.19;341014;29;1423;-71
2021/12/23 00:34:48;;;;;;;365.92;87.95;;;;;;;-2.82;76.57;100829.38;342110;28;1930;-71
2021/12/23 00:34:58;;;;;;;366.73;86.80;;;;;;;-2.80;76.73;100824.28;341157;28;1120;-71
2021/12/23 00:35:10;;;;;;;371.17;89.18;;;;;;;-2.81;76.19;100830.22;338341;28;1153;-71
2021/12/23 00:35:21;;;;;;;373.33;89.78;;;;;;;-2.81;76.35;100830.22;339041;29;1738;-71
2021/12/23 00:35:31;;;;;;;368.30;89.43;;;;;;;-2.80;76.73;100826.84;341616;28;1669;-71
2021/12/23 00:35:41;;;;;;;366.52;87.97;;;;;;;-2.81;76.98;100823.41;342051;28;1739;-71
2021/12/23 00:35:53;;;;;;;363.80;87.27;;;;;;;-2.80;76.46;100822.59;339705;29;990;-70
2021/12/23 00:36:04;;;;;;;365.67;86.47;;;;;;;-2.81;76.53;100825.09;338435;29;1437;-70
2021/12/23 00:36:15;;;;;;;369.55;86.88;;;;;;;-2.84;76.86;100828.44;339821;29;909;-70
2021/12/23 00:36:25;;;;;;;373.37;87.80;;;;;;;-2.85;76.90;100829.25;342312;28;1967;-70
2021/12/23 00:36:37;;;;;;;374.05;89.63;;;;;;;-2.83;76.51;100831.88;341010;29;1229;-70
2021/12/23 00:36:48;;;;;;;369.17;89.32;;;;;;;-2.81;76.68;100820.84;341116;29;1854;-70
2021/12/23 00:37:00;;;;;;;361.90;87.75;;;;;;;-2.82;76.47;100828.50;341125;28;1402;-70
2021/12/23 00:37:12;;;;;;;363.90;88.40;;;;;;;-2.80;77.02;100821.72;343713;28;843;-70
2021/12/23 00:37:22;;;;;;;363.05;88.38;;;;;;;-2.80;76.73;100829.41;342015;28;1801;-70
2021/12/23 00:37:38;;;;;;;365.45;87.85;;;;;;;-2.81;77.09;100823.41;340873;29;1712;-70
2021/12/23 00:37:55;;;;;;;369.13;88.60;;;;;;;-2.79;76.62;100823.47;341001;28;1659;-70
2021/12/23 00:38:15;;;;;;;369.17;87.55;;;;;;;-2.79;76.41;100826.91;340197;29;1446;-70
2021/12/23 00:38:33;;;;;;;372.75;89.68;;;;;;;-2.77;76.41;100826.94;340905;29;2170;-70
2021/12/23 00:38:54;;;;;;;372.38;92.18;;;;;;;-2.73;76.41;100823.66;338475;29;1532;-70
2021/12/23 00:39:07;;;;;;;362.50;87.95;;;;;;;-2.73;76.83;100831.34;339677;29;1854;-71
2021/12/23 00:39:17;;;;;;;359.92;86.65;;;;;;;-2.75;76.94;100826.19;338294;29;1316;-71
2021/12/23 00:39:29;;;;;;;363.27;87.68;;;;;;;-2.76;76.73;100818.44;339701;29;923;-71
2021/12/23 00:39:39;;;;;;;366.10;87.88;;;;;;;-2.75;76.78;100825.31;339724;29;1945;-71
2021/12/23 00:39:51;;;;;;;367.10;87.73;;;;;;;-2.75;76.40;100825.31;341718;28;2080;-71
2021/12/23 00:40:02;;;;;;;366.85;88.20;;;;;;;-2.76;76.26;100821.00;339815;29;889;-70
2021/12/23 00:40:13;;;;;;;365.67;88.10;;;;;;;-2.76;76.35;100826.13;338457;29;1285;-70
2021/12/23 00:40:24;;;;;;;364.48;88.05;;;;;;;-2.77;76.67;100821.84;339405;29;2198;-70
2021/12/23 00:40:34;;;;;;;362.70;87.72;;;;;;;-2.80;76.26;100826.84;339786;29;1941;-71
2021/12/23 00:40:45;;;;;;;363.00;88.30;;;;;;;-2.83;76.38;100826.75;337208;29;945;-71
2021/12/23 00:40:57;;;;;;;363.50;88.75;;;;;;;-2.84;76.95;100822.44;341088;28;901;-71
2021/12/23 00:41:09;;;;;;;366.63;89.25;;;;;;;-2.84;76.57;100830.13;340610;29;1062;-71
2021/12/23 00:41:23;;;;;;;363.27;88.30;;;;;;;-2.84;76.75;100825.88;339575;29;2067;-71
2021/12/23 00:41:34;;;;;;;365.05;87.53;;;;;;;-2.82;77.17;100820.81;338289;29;1408;-71
2021/12/23 00:41:45;;;;;;;365.50;88.00;;;;;;;-2.81;76.63;100822.56;342417;28;1188;-71
2021/12/23 00:42:05;;;;;;;365.30;87.53;;;;;;;-2.80;76.80;100821.72;341234;28;2350;-71
2021/12/23 00:42:15;;;;;;;362.35;86.13;;;;;;;-2.81;76.88;100822.56;342364;28;1239;-71
2021/12/23 00:42:26;;;;;;;362.33;86.73;;;;;;;-2.81;76.87;100820.84;341032;29;1205;-71
2021/12/23 00:42:36;;;;;;;361.67;87.60;;;;;;;-2.81;76.69;100825.09;342286;28;1785;-70
2021/12/23 00:42:47;;;;;;;361.00;86.90;;;;;;;-2.83;76.93;100827.63;339656;29;1076;-70
2021/12/23 00:42:57;;;;;;;365.10;87.72;;;;;;;-2.82;76.58;100825.94;338523;29;1165;-70
2021/12/23 00:43:07;;;;;;;366.13;88.73;;;;;;;-2.82;76.97;100825.94;337883;29;1026;-70
2021/12/23 00:43:18;;;;;;;369.10;89.18;;;;;;;-2.82;77.26;100818.25;337140;29;1781;-70
2021/12/23 00:43:29;;;;;;;366.42;89.15;;;;;;;-2.79;76.47;100826.03;340638;29;1782;-70
2021/12/23 00:43:40;;;;;;;369.85;90.88;;;;;;;-2.80;76.50;100831.97;340980;29;1652;-70
2021/12/23 00:43:50;;;;;;;366.70;91.60;;;;;;;-2.80;76.53;100821.72;339750;29;1411;-70
2021/12/23 00:44:01;;;;;;;366.73;91.07;;;;;;;-2.79;76.82;100820.91;339736;29;1233;-70
2021/12/23 00:44:14;;;;;;;364.90;88.68;;;;;;;-2.79;76.52;100814.09;341002;29;822;-70
2021/12/23 00:44:24;;;;;;;369.25;89.38;;;;;;;-2.79;77.17;100818.34;342255;28;1379;-70
2021/12/23 00:44:39;;;;;;;370.88;89.60;;;;;;;-2.77;76.93;100820.13;342164;28;1492;-70
2021/12/23 00:44:49;;;;;;;371.40;89.72;;;;;;;-2.76;76.56;100818.44;342266;28;1452;-70
2021/12/23 00:45:00;;;;;;;369.13;88.90;;;;;;;-2.76;76.35;100821.00;337230;29;1130;-70
2021/12/23 00:45:10;;;;;;;372.00;88.90;;;;;;;-2.74;76.96;100816.81;338450;29;1231;-70
2021/12/23 00:45:21;;;;;;;375.17;89.97;;;;;;;-2.74;76.72;100819.38;337053;29;1241;-70
2021/12/23 00:45:31;;;;;;;378.57;90.60;;;;;;;-2.73;76.95;100823.66;340383;29;2022;-70
2021/12/23 00:45:42;;;;;;;374.25;90.43;;;;;;;-2.74;76.62;100812.56;339421;29;1970;-70
2021/12/23 00:45:52;;;;;;;371.67;91.67;;;;;;;-2.73;76.30;100821.09;338317;29;1936;-70
2021/12/23 00:46:05;;;;;;;367.65;91.50;;;;;;;-2.74;76.47;100816.81;340914;29;2016;-70
2021/12/23 00:46:16;;;;;;;366.78;91.40;;;;;;;-2.77;76.66;100827.81;341148;29;985;-70
2021/12/23 00:46:27;;;;;;;366.00;90.87;;;;;;;-2.77;76.24;100821.84;340988;29;2069;-70
2021/12/23 00:46:37;;;;;;;368.45;91.63;;;;;;;-2.80;76.42;100817.47;338444;29;2126;-70
2021/12/23 00:46:47;;;;;;;372.00;90.77;;;;;;;-2.79;76.99;100813.22;342323;28;1771;-70
2021/12/23 00:46:58;;;;;;;375.52;91.18;;;;;;;-2.79;76.83;100824.34;342647;28;1597;-70
2021/12/23 00:47:08;;;;;;;372.80;90.00;;;;;;;-2.78;76.35;100820.09;342393;28;1736;-70
2021/12/23 00:47:19;;;;;;;371.70;90.97;;;;;;;-2.77;76.90;100821.84;339525;28;1427;-70
2021/12/23 00:47:29;;;;;;;367.43;90.73;;;;;;;-2.77;76.84;100821.84;339930;29;1043;-70
2021/12/23 00:47:40;;;;;;;370.52;91.22;;;;;;;-2.79;76.29;100819.22;339644;29;1612;-70
2021/12/23 00:47:50;;;;;;;369.67;89.25;;;;;;;-2.79;76.90;100820.91;343148;28;1685;-70
2021/12/23 00:48:01;;;;;;;370.23;89.63;;;;;;;-2.81;77.05;100820.84;341000;29;1556;-70
2021/12/23 00:48:11;;;;;;;367.60;89.32;;;;;;;-2.82;76.79;100828.50;339716;29;2039;-70
2021/12/23 00:48:21;;;;;;;370.63;90.40;;;;;;;-2.82;76.63;100819.13;339087;29;819;-70
2021/12/23 00:48:35;;;;;;;373.65;89.32;;;;;;;-2.82;76.48;100818.25;338484;29;947;-70
2021/12/23 00:48:45;;;;;;;369.67;87.68;;;;;;;-2.83;76.70;100817.38;339807;29;902;-70
2021/12/23 00:48:56;;;;;;;367.52;87.28;;;;;;;-2.81;76.78;100814.88;339475;29;1199;-70
2021/12/23 00:49:06;;;;;;;366.00;88.13;;;;;;;-2.80;77.16;100821.72;339849;29;1997;-70
2021/12/23 00:49:17;;;;;;;365.98;87.68;;;;;;;-2.81;76.80;100814.88;337123;29;1206;-70
2021/12/23 00:49:27;;;;;;;364.77;87.63;;;;;;;-2.82;76.26;100814.00;338403;29;1059;-70
2021/12/23 00:49:37;;;;;;;364.50;88.05;;;;;;;-2.81;76.34;100820.84;339695;29;1842;-70
2021/12/23 00:49:48;;;;;;;365.17;88.47;;;;;;;-2.80;76.41;100822.59;340885;29;2065;-70
2021/12/23 00:49:58;;;;;;;368.95;89.15;;;;;;;-2.79;76.38;100826.03;341064;29;876;-70
2021/12/23 00:50:09;;;;;;;371.50;89.40;;;;;;;-2.80;76.59;100814.91;339857;29;893;-70
2021/12/23 00:50:19;;;;;;;371.90;90.10;;;;;;;-2.80;76.80;100825.16;339782;29;2211;-70
2021/12/23 00:50:29;;;;;;;368.93;89.43;;;;;;;-2.80;76.39;100819.16;341151;29;921;-70
2021/12/23 00:50:40;;;;;;;368.55;89.80;;;;;;;-2.80;76.74;100830.28;340953;28;2088;-70
2021/12/23 00:50:50;;;;;;;366.13;90.50;;;;;;;-2.81;76.71;100820.00;340527;28;1290;-70
2021/12/23 00:51:02;;;;;;;368.38;91.07;;;;;;;-2.80;76.38;100821.72;340447;29;2083;-70
2021/12/23 00:51:14;;;;;;;371.42;90.07;;;;;;;-2.79;76.61;100818.34;337094;29;1292;-70
2021/12/23 00:51:24;;;;;;;372.23;89.63;;;;;;;-2.79;76.55;100815.78;339625;29;1594;-70
2021/12/23 00:51:35;;;;;;;371.38;90.53;;;;;;;-2.79;76.45;100818.34;339862;29;1809;-70
2021/12/23 00:51:45;;;;;;;372.15;91.68;;;;;;;-2.78;76.68;100817.53;339818;29;920;-70
2021/12/23 00:51:57;;;;;;;377.57;92.90;;;;;;;-2.77;77.20;100819.28;339771;29;1453;-70
2021/12/23 00:52:08;;;;;;;377.85;91.88;;;;;;;-2.79;76.45;100818.34;339691;29;1472;-70
2021/12/23 00:52:26;;;;;;;376.23;92.22;;;;;;;-2.79;76.31;100820.91;337019;29;1786;-70
2021/12/23 00:52:39;;;;;;;377.83;93.45;;;;;;;-2.78;76.80;100814.97;339807;28;1896;-70
2021/12/23 00:52:56;;;;;;;378.80;94.20;;;;;;;-2.78;76.19;100817.53;341026;29;896;-70
2021/12/23 00:53:09;;;;;;;377.48;94.40;;;;;;;-2.75;76.74;100820.19;340982;29;1757;-70
2021/12/23 00:53:22;;;;;;;379.45;94.40;;;;;;;-2.76;76.33;100819.31;340908;29;2252;-70
2021/12/23 00:53:38;;;;;;;379.90;94.05;;;;;;;-2.77;76.38;100815.00;339824;29;1058;-70
2021/12/23 00:53:51;;;;;;;377.75;93.47;;;;;;;-2.74;76.11;100819.38;339682;29;2078;-70
2021/12/23 00:54:05;;;;;;;375.73;94.03;;;;;;;-2.77;76.41;100816.72;339933;29;983;-70
2021/12/23 00:54:15;;;;;;;380.40;94.70;;;;;;;-2.78;76.15;100820.97;336946;29;1478;-70
2021/12/23 00:54:25;;;;;;;380.90;94.13;;;;;;;-2.80;76.53;100817.47;338145;29;1990;-70
2021/12/23 00:54:36;;;;;;;382.70;94.60;;;;;;;-2.80;76.75;100817.47;341096;29;2327;-71
2021/12/23 00:54:46;;;;;;;383.23;96.03;;;;;;;-2.80;76.50;100820.03;342352;28;1914;-71
2021/12/23 00:54:57;;;;;;;381.88;97.10;;;;;;;-2.79;76.73;100820.91;340807;29;2079;-71
2021/12/23 00:55:11;;;;;;;382.23;96.93;;;;;;;-2.79;76.40;100823.47;341776;28;2080;-71
2021/12/23 00:55:21;;;;;;;381.55;95.13;;;;;;;-2.78;76.99;100822.66;339675;29;1468;-71
2021/12/23 00:55:32;;;;;;;386.38;96.80;;;;;;;-2.78;76.61;100820.09;339779;29;1021;-71
2021/12/23 00:55:43;;;;;;;383.20;96.55;;;;;;;-2.78;76.47;100820.09;339741;29;1969;-71
2021/12/23 00:55:55;;;;;;;383.63;98.07;;;;;;;-2.77;76.40;100826.94;342320;28;1616;-71
2021/12/23 00:56:06;;;;;;;386.45;98.13;;;;;;;-2.78;76.47;100814.97;340686;28;2073;-71
2021/12/23 00:56:16;;;;;;;386.65;97.70;;;;;;;-2.77;76.25;100816.72;341285;28;1543;-71
2021/12/23 00:56:27;;;;;;;383.83;96.60;;;;;;;-2.78;76.16;100815.84;340747;29;2119;-71
2021/12/23 00:56:38;;;;;;;381.95;95.65;;;;;;;-2.77;76.54;100816.72;341074;29;854;-71
2021/12/23 00:56:50;;;;;;;382.52;96.25;;;;;;;-2.77;76.66;100816.72;337241;29;897;-71
2021/12/23 00:57:00;;;;;;;382.05;95.65;;;;;;;-2.76;76.27;100818.44;341003;29;1439;-71
2021/12/23 00:57:11;;;;;;;380.85;94.45;;;;;;;-2.76;76.25;100818.44;340129;29;1024;-71
2021/12/23 00:57:27;;;;;;;383.63;94.97;;;;;;;-2.76;76.11;100816.75;341762;28;1717;-71
2021/12/23 00:57:39;;;;;;;383.20;97.15;;;;;;;-2.77;76.22;100811.59;339331;29;1996;-71
2021/12/23 00:57:50;;;;;;;380.10;96.25;;;;;;;-2.77;76.42;100817.56;342218;28;929;-71
2021/12/23 00:58:00;;;;;;;379.77;95.38;;;;;;;-2.77;76.12;100809.91;339818;29;898;-71
2021/12/23 00:58:11;;;;;;;377.93;94.40;;;;;;;-2.77;76.28;100811.59;339675;29;821;-71
2021/12/23 00:58:21;;;;;;;378.70;92.93;;;;;;;-2.77;76.31;100814.16;339713;29;2126;-71